Weather at Kalnes Sykehus Heliport

Public forecast

Using degrees Celsius for public forecast. Weather courtesy of forecast.io.

Closest aviation weather report (METAR) to Kalnes Sykehus Heliport

Closest report is Moss Airport, Rygge, 8.1 nm (15.1 km) WNW. Retrieved 2021/07/28 16:50 UTC (29 minutes ago):

ENRY 281650Z 19008KT 9999 FEW023 SCT096 20/14 Q1005

Closest aviation forecast (TAF) to Kalnes Sykehus Heliport

Closest forecast is Moss Airport, Rygge, 8.1 nm (15.1 km) WNW. Retrieved 2021/07/28 12:03 UTC (5 hours ago):

TAF TAF ENRY 281100Z 2812/2912 19012KT 9999 SCT015 BKN025 TEMPO 2812/2824 SHRA BKN010 SCT020CB BECMG 2817/2819 VRB05KT TEMPO 2900/2912 2000 SHRA BR BKN004 SCT015CB PROB40 TEMPO 2903/2912 TS